Aviation Digital Data Service (ADDS)

Output produced by METARs form (1522 UTC 31 July 2015)
found at http://aviationweather.gov/adds/metars/
 
KMGW 311120Z 3112/0112 24005KT P6SM SCT060